Wetterdaten: aktuell Freitag, 28.02.2020 19:15
Datum Zeit Temp. Feuchte Luftdruck Nieders. Wind Richtung Richtung Sonnenschein Solar Taupunkt Windchill Windben
28.02.2020 19:15 5,6 C 72 % 1013,8 hPa 0,0 l/m 11,5 km/h (2 Bft) S-SO 159 0 min 0 W/m 1,0 C 1,8 C 20,9 km/h (4 Bft)
28.02.2020 19:10 5,6 C 71 % 1013,8 hPa 0,0 l/m 12,9 km/h (3 Bft) SO 128 0 min 0 W/m 0,8 C 0,9 C 22,5 km/h (4 Bft)
28.02.2020 19:05 5,6 C 72 % 1013,9 hPa 0,0 l/m 10,4 km/h (2 Bft) SO 128 0 min 0 W/m 1,0 C 2,5 C 17,7 km/h (3 Bft)
28.02.2020 19:00 5,6 C 72 % 1014,0 hPa 0,0 l/m 8,8 km/h (2 Bft) O-SO 120 0 min 0 W/m 1,0 C 3,6 C 17,7 km/h (3 Bft)
28.02.2020 18:55 5,7 C 71 % 1014,1 hPa 0,0 l/m 7,4 km/h (2 Bft) SO 140 0 min 0 W/m 0,9 C 4,8 C 14,5 km/h (3 Bft)
28.02.2020 18:50 5,7 C 72 % 1014,2 hPa 0,0 l/m 8,8 km/h (2 Bft) SO 128 0 min 0 W/m 1,1 C 3,7 C 19,3 km/h (3 Bft)
28.02.2020 18:45 5,7 C 71 % 1014,2 hPa 0,0 l/m 8,5 km/h (2 Bft) O-SO 118 0 min 0 W/m 0,9 C 3,9 C 16,1 km/h (3 Bft)
28.02.2020 18:40 5,7 C 71 % 1014,3 hPa 0,0 l/m 9,9 km/h (2 Bft) SO 130 0 min 0 W/m 0,9 C 2,9 C 20,9 km/h (4 Bft)
28.02.2020 18:35 5,8 C 71 % 1014,3 hPa 0,0 l/m 9,2 km/h (2 Bft) SO 141 0 min 0 W/m 1,0 C 3,5 C 19,3 km/h (3 Bft)
28.02.2020 18:30 5,8 C 71 % 1014,4 hPa 0,0 l/m 8,8 km/h (2 Bft) O-SO 122 0 min 0 W/m 1,0 C 3,8 C 16,1 km/h (3 Bft)
28.02.2020 18:25 5,8 C 71 % 1014,5 hPa 0,0 l/m 6,1 km/h (2 Bft) O-SO 118 0 min 0 W/m 1,0 C 5,8 C 12,9 km/h (3 Bft)
28.02.2020 18:20 5,8 C 71 % 1014,6 hPa 0,0 l/m 7,1 km/h (2 Bft) SO 129 0 min 0 W/m 1,0 C 5,2 C 14,5 km/h (3 Bft)
28.02.2020 18:15 5,9 C 71 % 1014,7 hPa 0,0 l/m 6,9 km/h (2 Bft) SO 134 0 min 0 W/m 1,1 C 5,5 C 14,5 km/h (3 Bft)
28.02.2020 18:10 5,9 C 70 % 1014,8 hPa 0,0 l/m 6,8 km/h (2 Bft) SO 126 0 min 0 W/m 0,9 C 5,6 C 14,5 km/h (3 Bft)
28.02.2020 18:05 5,9 C 70 % 1014,8 hPa 0,0 l/m 6,4 km/h (2 Bft) SO 128 0 min 0 W/m 0,9 C 5,9 C 12,9 km/h (3 Bft)
28.02.2020 18:00 6,0 C 70 % 1015,0 hPa 0,0 l/m 3,3 km/h (1 Bft) SO 140 0 min 0 W/m 1,0 C 6,0 C 8,0 km/h (2 Bft)
28.02.2020 17:55 6,0 C 71 % 1015,0 hPa 0,0 l/m 4,1 km/h (1 Bft) SO 141 0 min 0 W/m 1,1 C 6,0 C 8,0 km/h (2 Bft)
28.02.2020 17:50 6,0 C 70 % 1015,1 hPa 0,0 l/m 2,3 km/h (1 Bft) S-SO 150 0 min 0 W/m 1,0 C 6,0 C 9,7 km/h (2 Bft)
28.02.2020 17:45 6,1 C 70 % 1015,2 hPa 0,0 l/m 2,8 km/h (1 Bft) S-SO 150 0 min 5 W/m 1,0 C 6,1 C 8,0 km/h (2 Bft)
28.02.2020 17:40 6,1 C 70 % 1015,3 hPa 0,0 l/m 3,4 km/h (1 Bft) S-SO 150 0 min 11 W/m 1,0 C 6,1 C 9,7 km/h (2 Bft)
28.02.2020 17:35 6,1 C 70 % 1015,3 hPa 0,0 l/m 2,1 km/h (1 Bft) SO 146 0 min 16 W/m 1,0 C 6,1 C 8,0 km/h (2 Bft)
28.02.2020 17:30 6,0 C 71 % 1015,5 hPa 0,0 l/m 2,8 km/h (1 Bft) SO 142 0 min 23 W/m 1,1 C 6,0 C 12,9 km/h (3 Bft)
28.02.2020 17:25 6,0 C 71 % 1015,6 hPa 0,0 l/m 2,3 km/h (1 Bft) S-SW 200 0 min 28 W/m 1,1 C 6,0 C 6,4 km/h (2 Bft)
28.02.2020 17:20 6,1 C 72 % 1015,7 hPa 0,0 l/m 1,2 km/h (1 Bft) S-SW 202 0 min 37 W/m 1,4 C 6,1 C 6,4 km/h (2 Bft)
28.02.2020 17:15 6,1 C 72 % 1015,8 hPa 0,0 l/m 0,0 km/h (0 Bft) S-SW 208 0 min 44 W/m 1,4 C 6,1 C 0,0 km/h (0 Bft)
28.02.2020 17:10 6,1 C 71 % 1016,1 hPa 0,0 l/m 3,5 km/h (1 Bft) S-SW 208 0 min 51 W/m 1,2 C 6,1 C 8,0 km/h (2 Bft)
28.02.2020 17:05 6,1 C 72 % 1016,0 hPa 0,0 l/m 3,0 km/h (1 Bft) SW 218 0 min 54 W/m 1,4 C 6,1 C 8,0 km/h (2 Bft)
28.02.2020 17:00 6,2 C 70 % 1016,1 hPa 0,0 l/m 6,0 km/h (2 Bft) SW 219 0 min 67 W/m 1,1 C 6,2 C 11,3 km/h (2 Bft)
28.02.2020 16:55 6,3 C 70 % 1016,2 hPa 0,0 l/m 3,9 km/h (1 Bft) S-SW 195 0 min 83 W/m 1,2 C 6,3 C 11,3 km/h (2 Bft)
28.02.2020 16:50 6,4 C 69 % 1016,4 hPa 0,0 l/m 5,7 km/h (2 Bft) S 189 0 min 95 W/m 1,1 C 6,4 C 12,9 km/h (3 Bft)
28.02.2020 16:45 6,4 C 70 % 1016,4 hPa 0,0 l/m 2,6 km/h (1 Bft) S-SW 202 0 min 105 W/m 1,3 C 6,4 C 8,0 km/h (2 Bft)
28.02.2020 16:40 6,4 C 71 % 1016,4 hPa 0,0 l/m 5,9 km/h (2 Bft) S-SW 202 0 min 137 W/m 1,5 C 6,4 C 12,9 km/h (3 Bft)
28.02.2020 16:35 6,3 C 70 % 1016,5 hPa 0,0 l/m 6,4 km/h (2 Bft) SW 226 0 min 151 W/m 1,2 C 6,3 C 14,5 km/h (3 Bft)
28.02.2020 16:30 6,3 C 71 % 1016,6 hPa 0,0 l/m 5,0 km/h (1 Bft) S-SW 200 5 min 169 W/m 1,4 C 6,3 C 9,7 km/h (2 Bft)
28.02.2020 16:25 6,1 C 72 % 1016,7 hPa 0,0 l/m 3,1 km/h (1 Bft) S 182 5 min 176 W/m 1,4 C 6,1 C 9,7 km/h (2 Bft)
28.02.2020 16:20 5,9 C 72 % 1016,8 hPa 0,0 l/m 5,3 km/h (1 Bft) S-SW 203 5 min 167 W/m 1,2 C 5,9 C 9,7 km/h (2 Bft)
28.02.2020 16:15 5,8 C 72 % 1016,8 hPa 0,0 l/m 5,9 km/h (2 Bft) S 190 0 min 149 W/m 1,2 C 5,8 C 12,9 km/h (3 Bft)
28.02.2020 16:10 5,8 C 72 % 1017,0 hPa 0,0 l/m 5,4 km/h (2 Bft) S 176 0 min 121 W/m 1,2 C 5,8 C 12,9 km/h (3 Bft)
28.02.2020 16:05 5,8 C 73 % 1017,0 hPa 0,0 l/m 6,1 km/h (2 Bft) S-SO 165 0 min 111 W/m 1,3 C 5,8 C 14,5 km/h (3 Bft)
28.02.2020 16:00 5,9 C 72 % 1017,2 hPa 0,0 l/m 7,4 km/h (2 Bft) S 176 0 min 128 W/m 1,2 C 5,0 C 16,1 km/h (3 Bft)
28.02.2020 15:55 5,9 C 71 % 1017,2 hPa 0,0 l/m 5,6 km/h (2 Bft) S 187 0 min 148 W/m 1,1 C 5,9 C 16,1 km/h (3 Bft)
28.02.2020 15:50 5,9 C 72 % 1017,4 hPa 0,0 l/m 7,0 km/h (2 Bft) S 191 5 min 158 W/m 1,2 C 5,4 C 17,7 km/h (3 Bft)
28.02.2020 15:45 5,9 C 72 % 1017,4 hPa 0,0 l/m 7,4 km/h (2 Bft) SW 224 5 min 160 W/m 1,2 C 5,0 C 12,9 km/h (3 Bft)
28.02.2020 15:40 5,9 C 72 % 1017,6 hPa 0,0 l/m 7,5 km/h (2 Bft) SW 221 5 min 179 W/m 1,2 C 5,0 C 14,5 km/h (3 Bft)
28.02.2020 15:35 5,8 C 71 % 1017,8 hPa 0,0 l/m 9,4 km/h (2 Bft) S-SW 194 5 min 188 W/m 1,0 C 3,4 C 19,3 km/h (3 Bft)
28.02.2020 15:30 5,8 C 72 % 1017,7 hPa 0,0 l/m 8,0 km/h (2 Bft) S-SW 208 5 min 172 W/m 1,2 C 4,4 C 17,7 km/h (3 Bft)
28.02.2020 15:25 5,8 C 71 % 1017,7 hPa 0,0 l/m 9,9 km/h (2 Bft) S-SW 194 5 min 178 W/m 1,0 C 3,0 C 19,3 km/h (3 Bft)
28.02.2020 15:20 5,8 C 71 % 1017,8 hPa 0,0 l/m 9,9 km/h (2 Bft) S 186 5 min 176 W/m 1,0 C 3,0 C 17,7 km/h (3 Bft)
28.02.2020 15:15 5,9 C 70 % 1017,9 hPa 0,0 l/m 8,6 km/h (2 Bft) S-SW 205 5 min 172 W/m 0,9 C 4,1 C 17,7 km/h (3 Bft)
28.02.2020 15:10 5,9 C 71 % 1017,9 hPa 0,0 l/m 9,1 km/h (2 Bft) S 183 5 min 178 W/m 1,1 C 3,7 C 20,9 km/h (4 Bft)
28.02.2020 15:05 5,9 C 71 % 1017,9 hPa 0,0 l/m 11,2 km/h (2 Bft) S-SW 205 5 min 186 W/m 1,1 C 2,3 C 25,7 km/h (4 Bft)
28.02.2020 15:00 6,0 C 70 % 1017,8 hPa 0,0 l/m 11,3 km/h (2 Bft) S 191 5 min 211 W/m 1,0 C 2,3 C 19,3 km/h (3 Bft)
28.02.2020 14:55 6,1 C 71 % 1018,0 hPa 0,0 l/m 11,2 km/h (2 Bft) S-SW 208 5 min 243 W/m 1,2 C 2,5 C 27,4 km/h (5 Bft)
28.02.2020 14:50 6,1 C 71 % 1018,0 hPa 0,0 l/m 8,2 km/h (2 Bft) S-SW 201 5 min 185 W/m 1,2 C 4,6 C 17,7 km/h (3 Bft)
28.02.2020 14:45 6,2 C 71 % 1018,0 hPa 0,0 l/m 10,0 km/h (2 Bft) SW 217 5 min 264 W/m 1,3 C 3,4 C 17,7 km/h (3 Bft)
28.02.2020 14:40 6,1 C 72 % 1018,0 hPa 0,0 l/m 10,2 km/h (2 Bft) S-SW 210 5 min 290 W/m 1,4 C 3,2 C 17,7 km/h (3 Bft)
28.02.2020 14:35 6,1 C 72 % 1018,0 hPa 0,0 l/m 11,3 km/h (2 Bft) S 185 5 min 276 W/m 1,4 C 2,4 C 19,3 km/h (3 Bft)
28.02.2020 14:30 6,1 C 71 % 1018,1 hPa 0,0 l/m 12,5 km/h (2 Bft) S 190 5 min 318 W/m 1,2 C 1,7 C 25,7 km/h (4 Bft)
28.02.2020 14:25 6,3 C 72 % 1018,0 hPa 0,0 l/m 10,7 km/h (2 Bft) SW 223 5 min 206 W/m 1,6 C 3,0 C 19,3 km/h (3 Bft)
28.02.2020 14:20 6,2 C 75 % 1018,2 hPa 0,0 l/m 7,1 km/h (2 Bft) SW 217 5 min 320 W/m 2,1 C 5,6 C 19,3 km/h (3 Bft)
28.02.2020 14:15 6,2 C 73 % 1018,2 hPa 0,0 l/m 13,1 km/h (3 Bft) S-SW 195 5 min 209 W/m 1,7 C 1,5 C 27,4 km/h (5 Bft)
28.02.2020 14:10 6,2 C 74 % 1018,3 hPa 0,0 l/m 9,7 km/h (2 Bft) S-SW 204 5 min 246 W/m 1,9 C 3,6 C 19,3 km/h (3 Bft)
28.02.2020 14:05 6,2 C 73 % 1018,4 hPa 0,0 l/m 10,9 km/h (2 Bft) S 173 5 min 174 W/m 1,7 C 2,8 C 17,7 km/h (3 Bft)
28.02.2020 14:00 6,5 C 73 % 1018,4 hPa 0,0 l/m 10,9 km/h (2 Bft) S-SW 192 5 min 163 W/m 2,0 C 3,1 C 20,9 km/h (4 Bft)
28.02.2020 13:55 6,6 C 73 % 1018,4 hPa 0,0 l/m 10,7 km/h (2 Bft) S-SW 200 5 min 490 W/m 2,1 C 3,4 C 22,5 km/h (4 Bft)
28.02.2020 13:50 6,3 C 74 % 1018,4 hPa 0,0 l/m 9,9 km/h (2 Bft) S 186 5 min 241 W/m 2,0 C 3,6 C 19,3 km/h (3 Bft)
28.02.2020 13:45 6,4 C 74 % 1018,5 hPa 0,0 l/m 8,8 km/h (2 Bft) S-SW 205 5 min 489 W/m 2,1 C 4,5 C 19,3 km/h (3 Bft)
28.02.2020 13:40 6,2 C 74 % 1018,5 hPa 0,0 l/m 10,6 km/h (2 Bft) S 190 5 min 367 W/m 1,9 C 3,0 C 25,7 km/h (4 Bft)
28.02.2020 13:35 6,2 C 73 % 1018,6 hPa 0,0 l/m 9,1 km/h (2 Bft) SW 215 5 min 195 W/m 1,7 C 4,0 C 19,3 km/h (3 Bft)
28.02.2020 13:30 6,2 C 74 % 1018,7 hPa 0,0 l/m 8,7 km/h (2 Bft) S-SW 203 5 min 213 W/m 1,9 C 4,3 C 20,9 km/h (4 Bft)
28.02.2020 13:25 6,3 C 73 % 1018,6 hPa 0,0 l/m 10,2 km/h (2 Bft) S-SW 210 5 min 227 W/m 1,8 C 3,4 C 25,7 km/h (4 Bft)
28.02.2020 13:20 6,2 C 71 % 1018,6 hPa 0,0 l/m 8,8 km/h (2 Bft) SW 214 5 min 320 W/m 1,3 C 4,2 C 16,1 km/h (3 Bft)
28.02.2020 13:15 6,3 C 72 % 1018,7 hPa 0,0 l/m 8,6 km/h (2 Bft) S-SW 212 5 min 199 W/m 1,6 C 4,5 C 17,7 km/h (3 Bft)
28.02.2020 13:10 6,2 C 71 % 1018,7 hPa 0,0 l/m 11,1 km/h (2 Bft) S-SW 208 5 min 255 W/m 1,3 C 2,7 C 19,3 km/h (3 Bft)
28.02.2020 13:05 5,9 C 74 % 1018,8 hPa 0,0 l/m 7,5 km/h (2 Bft) S-SW 200 5 min 246 W/m 1,6 C 5,0 C 14,5 km/h (3 Bft)
28.02.2020 13:00 5,6 C 76 % 1018,9 hPa 0,0 l/m 5,9 km/h (2 Bft) SW 232 5 min 221 W/m 1,7 C 5,6 C 12,9 km/h (3 Bft)
28.02.2020 12:55 5,4 C 75 % 1019,0 hPa 0,0 l/m 8,0 km/h (2 Bft) SW 214 0 min 137 W/m 1,3 C 4,0 C 14,5 km/h (3 Bft)
28.02.2020 12:50 5,6 C 75 % 1019,1 hPa 0,0 l/m 10,2 km/h (2 Bft) S-SW 200 0 min 146 W/m 1,5 C 2,6 C 19,3 km/h (3 Bft)
28.02.2020 12:45 5,6 C 76 % 1019,1 hPa 0,0 l/m 7,2 km/h (2 Bft) S-SW 196 5 min 255 W/m 1,7 C 4,9 C 12,9 km/h (3 Bft)
28.02.2020 12:40 5,6 C 76 % 1019,2 hPa 0,0 l/m 7,6 km/h (2 Bft) S-SW 208 0 min 146 W/m 1,7 C 4,6 C 12,9 km/h (3 Bft)
28.02.2020 12:35 5,7 C 76 % 1019,3 hPa 0,0 l/m 7,8 km/h (2 Bft) S-SO 155 5 min 229 W/m 1,8 C 4,5 C 14,5 km/h (3 Bft)
28.02.2020 12:30 5,7 C 77 % 1019,3 hPa 0,0 l/m 8,4 km/h (2 Bft) S-SO 156 5 min 181 W/m 2,0 C 4,0 C 14,5 km/h (3 Bft)
28.02.2020 12:25 5,7 C 76 % 1019,4 hPa 0,0 l/m 6,5 km/h (2 Bft) SW 217 5 min 204 W/m 1,8 C 5,6 C 16,1 km/h (3 Bft)
28.02.2020 12:20 5,7 C 76 % 1019,3 hPa 0,0 l/m 6,6 km/h (2 Bft) S-SW 202 5 min 169 W/m 1,8 C 5,6 C 16,1 km/h (3 Bft)
28.02.2020 12:15 5,8 C 75 % 1019,3 hPa 0,0 l/m 10,4 km/h (2 Bft) SW 221 5 min 197 W/m 1,7 C 2,7 C 17,7 km/h (3 Bft)
28.02.2020 12:10 5,8 C 77 % 1019,4 hPa 0,0 l/m 9,9 km/h (2 Bft) S-SO 167 5 min 246 W/m 2,1 C 3,0 C 19,3 km/h (3 Bft)
28.02.2020 12:05 5,8 C 78 % 1019,5 hPa 0,0 l/m 11,0 km/h (2 Bft) S-SW 211 5 min 390 W/m 2,3 C 2,3 C 20,9 km/h (4 Bft)
28.02.2020 12:00 5,5 C 81 % 1019,5 hPa 0,0 l/m 7,6 km/h (2 Bft) S-SW 194 5 min 712 W/m 2,5 C 4,5 C 17,7 km/h (3 Bft)
28.02.2020 11:55 5,3 C 78 % 1019,5 hPa 0,0 l/m 8,0 km/h (2 Bft) S-SW 203 5 min 163 W/m 1,8 C 3,9 C 17,7 km/h (3 Bft)
28.02.2020 11:50 5,5 C 79 % 1019,5 hPa 0,0 l/m 4,0 km/h (1 Bft) NW 309 5 min 214 W/m 2,2 C 5,5 C 11,3 km/h (2 Bft)
28.02.2020 11:45 5,6 C 77 % 1019,5 hPa 0,0 l/m 5,9 km/h (2 Bft) SW 214 5 min 178 W/m 1,9 C 5,6 C 19,3 km/h (3 Bft)
28.02.2020 11:40 5,8 C 77 % 1019,5 hPa 0,0 l/m 4,9 km/h (1 Bft) W-NW 291 0 min 118 W/m 2,1 C 5,8 C 17,7 km/h (3 Bft)
28.02.2020 11:35 5,9 C 77 % 1019,4 hPa 0,0 l/m 3,4 km/h (1 Bft) W-SW 253 5 min 167 W/m 2,2 C 5,9 C 16,1 km/h (3 Bft)
28.02.2020 11:30 5,9 C 77 % 1019,3 hPa 0,0 l/m 5,8 km/h (2 Bft) W 266 5 min 584 W/m 2,2 C 5,9 C 17,7 km/h (3 Bft)
28.02.2020 11:25 5,7 C 80 % 1019,2 hPa 0,0 l/m 4,5 km/h (1 Bft) W-SW 257 5 min 642 W/m 2,5 C 5,7 C 14,5 km/h (3 Bft)
28.02.2020 11:20 5,6 C 78 % 1019,2 hPa 0,0 l/m 6,5 km/h (2 Bft) W-SW 252 5 min 545 W/m 2,1 C 5,5 C 14,5 km/h (3 Bft)
28.02.2020 11:15 5,8 C 78 % 1019,2 hPa 0,0 l/m 6,0 km/h (2 Bft) W 259 5 min 543 W/m 2,3 C 5,8 C 16,1 km/h (3 Bft)
28.02.2020 11:10 5,8 C 81 % 1019,2 hPa 0,0 l/m 4,2 km/h (1 Bft) W-NW 288 5 min 612 W/m 2,8 C 5,8 C 16,1 km/h (3 Bft)
28.02.2020 11:05 5,4 C 83 % 1019,2 hPa 0,0 l/m 4,5 km/h (1 Bft) S-SW 205 5 min 615 W/m 2,7 C 5,4 C 12,9 km/h (3 Bft)
28.02.2020 11:00 5,1 C 81 % 1019,2 hPa 0,0 l/m 6,0 km/h (2 Bft) W-NW 292 5 min 559 W/m 2,1 C 5,1 C 12,9 km/h (3 Bft)
28.02.2020 10:55 4,8 C 84 % 1019,1 hPa 0,0 l/m 5,4 km/h (2 Bft) SW 234 5 min 501 W/m 2,3 C 4,8 C 11,3 km/h (2 Bft)
28.02.2020 10:50 4,6 C 81 % 1019,2 hPa 0,0 l/m 5,8 km/h (2 Bft) SW 227 5 min 452 W/m 1,6 C 4,6 C 16,1 km/h (3 Bft)
28.02.2020 10:45 4,4 C 85 % 1019,2 hPa 0,0 l/m 3,3 km/h (1 Bft) W-NW 284 5 min 473 W/m 2,1 C 4,4 C 12,9 km/h (3 Bft)
28.02.2020 10:40 4,1 C 84 % 1019,3 hPa 0,0 l/m 5,9 km/h (2 Bft) S-SW 210 5 min 213 W/m 1,6 C 4,1 C 11,3 km/h (2 Bft)
28.02.2020 10:35 4,1 C 85 % 1019,3 hPa 0,0 l/m 4,0 km/h (1 Bft) SW 221 5 min 163 W/m 1,8 C 4,1 C 9,7 km/h (2 Bft)
28.02.2020 10:30 3,8 C 87 % 1019,2 hPa 0,0 l/m 5,4 km/h (2 Bft) S-SW 213 5 min 287 W/m 1,8 C 3,8 C 11,3 km/h (2 Bft)
28.02.2020 10:25 3,4 C 88 % 1019,2 hPa 0,0 l/m 6,1 km/h (2 Bft) SW 221 5 min 406 W/m 1,6 C 3,4 C 11,3 km/h (2 Bft)
28.02.2020 10:20 3,1 C 88 % 1019,3 hPa 0,0 l/m 5,0 km/h (1 Bft) SW 219 5 min 199 W/m 1,3 C 3,1 C 11,3 km/h (2 Bft)
28.02.2020 10:15 2,9 C 88 % 1019,2 hPa 0,0 l/m 3,6 km/h (1 Bft) S-SW 195 5 min 229 W/m 1,1 C 2,9 C 11,3 km/h (2 Bft)
28.02.2020 10:10 2,8 C 88 % 1019,2 hPa 0,0 l/m 4,1 km/h (1 Bft) S-SW 198 0 min 107 W/m 1,0 C 2,8 C 11,3 km/h (2 Bft)
28.02.2020 10:05 2,7 C 88 % 1019,3 hPa 0,0 l/m 7,0 km/h (2 Bft) SW 219 0 min 67 W/m 0,9 C 2,1 C 12,9 km/h (3 Bft)
28.02.2020 10:00 2,7 C 88 % 1019,3 hPa 0,0 l/m 5,7 km/h (2 Bft) S 179 0 min 60 W/m 0,9 C 2,7 C 9,7 km/h (2 Bft)
28.02.2020 09:55 2,6 C 88 % 1019,3 hPa 0,0 l/m 4,9 km/h (1 Bft) S-SW 194 0 min 44 W/m 0,8 C 2,6 C 14,5 km/h (3 Bft)
28.02.2020 09:50 2,7 C 88 % 1019,2 hPa 0,2 l/m 6,5 km/h (2 Bft) S 184 0 min 47 W/m 0,9 C 2,6 C 12,9 km/h (3 Bft)
28.02.2020 09:45 2,6 C 88 % 1019,2 hPa 0,0 l/m 7,7 km/h (2 Bft) S-SW 210 0 min 54 W/m 0,8 C 1,4 C 14,5 km/h (3 Bft)
28.02.2020 09:40 2,7 C 88 % 1019,1 hPa 0,0 l/m 5,1 km/h (1 Bft) S-SW 195 0 min 62 W/m 0,9 C 2,7 C 12,9 km/h (3 Bft)
28.02.2020 09:35 2,7 C 88 % 1019,1 hPa 0,0 l/m 7,7 km/h (2 Bft) SW 225 0 min 51 W/m 0,9 C 1,5 C 14,5 km/h (3 Bft)
28.02.2020 09:30 2,7 C 88 % 1019,0 hPa 0,0 l/m 6,1 km/h (2 Bft) S 182 0 min 54 W/m 0,9 C 2,7 C 16,1 km/h (3 Bft)
28.02.2020 09:25 2,7 C 88 % 1019,0 hPa 0,0 l/m 7,7 km/h (2 Bft) S 176 0 min 40 W/m 0,9 C 1,5 C 16,1 km/h (3 Bft)
28.02.2020 09:20 2,7 C 87 % 1018,9 hPa 0,0 l/m 8,7 km/h (2 Bft) S 177 0 min 49 W/m 0,8 C 0,6 C 17,7 km/h (3 Bft)
28.02.2020 09:15 2,7 C 87 % 1018,7 hPa 0,0 l/m 7,8 km/h (2 Bft) S-SW 198 0 min 67 W/m 0,8 C 1,4 C 14,5 km/h (3 Bft)
28.02.2020 09:10 2,7 C 87 % 1018,5 hPa 0,2 l/m 10,4 km/h (2 Bft) S 190 0 min 69 W/m 0,8 C -0,8 C 19,3 km/h (3 Bft)
28.02.2020 09:05 2,7 C 87 % 1018,5 hPa 0,0 l/m 8,7 km/h (2 Bft) S-SW 198 0 min 58 W/m 0,8 C 0,6 C 17,7 km/h (3 Bft)
28.02.2020 09:00 2,7 C 88 % 1018,5 hPa 0,2 l/m 7,4 km/h (2 Bft) S 169 0 min 58 W/m 0,9 C 1,7 C 17,7 km/h (3 Bft)
28.02.2020 08:55 2,7 C 88 % 1018,5 hPa 0,0 l/m 6,6 km/h (2 Bft) S-SW 207 0 min 42 W/m 0,9 C 2,5 C 14,5 km/h (3 Bft)
28.02.2020 08:50 2,7 C 88 % 1018,5 hPa 0,0 l/m 6,5 km/h (2 Bft) S-SW 197 0 min 53 W/m 0,9 C 2,6 C 14,5 km/h (3 Bft)
28.02.2020 08:45 2,7 C 88 % 1018,3 hPa 0,0 l/m 5,8 km/h (2 Bft) S-SW 199 0 min 79 W/m 0,9 C 2,7 C 14,5 km/h (3 Bft)
28.02.2020 08:40 2,7 C 88 % 1018,2 hPa 0,0 l/m 6,1 km/h (2 Bft) SW 236 0 min 60 W/m 0,9 C 2,7 C 12,9 km/h (3 Bft)
28.02.2020 08:35 2,7 C 88 % 1018,1 hPa 0,0 l/m 5,4 km/h (2 Bft) SW 228 0 min 54 W/m 0,9 C 2,7 C 14,5 km/h (3 Bft)
28.02.2020 08:30 2,6 C 89 % 1018,0 hPa 0,2 l/m 6,1 km/h (2 Bft) S-SW 206 0 min 42 W/m 1,0 C 2,6 C 16,1 km/h (3 Bft)
28.02.2020 08:25 2,6 C 89 % 1017,9 hPa 0,0 l/m 5,6 km/h (2 Bft) S-SW 200 0 min 46 W/m 1,0 C 2,6 C 12,9 km/h (3 Bft)
28.02.2020 08:20 2,5 C 89 % 1017,9 hPa 0,0 l/m 4,9 km/h (1 Bft) SW 217 0 min 40 W/m 0,9 C 2,5 C 11,3 km/h (2 Bft)
28.02.2020 08:15 2,4 C 89 % 1017,7 hPa 0,0 l/m 3,7 km/h (1 Bft) SW 223 0 min 26 W/m 0,8 C 2,4 C 11,3 km/h (2 Bft)
28.02.2020 08:10 2,4 C 89 % 1017,6 hPa 0,0 l/m 1,2 km/h (1 Bft) SW 214 0 min 26 W/m 0,8 C 2,4 C 6,4 km/h (2 Bft)
28.02.2020 08:05 2,4 C 89 % 1017,5 hPa 0,0 l/m 1,3 km/h (1 Bft) W-SW 238 0 min 26 W/m 0,8 C 2,4 C 9,7 km/h (2 Bft)
28.02.2020 08:00 2,4 C 89 % 1017,3 hPa 0,0 l/m 1,6 km/h (1 Bft) S 186 0 min 23 W/m 0,8 C 2,4 C 8,0 km/h (2 Bft)
28.02.2020 07:55 2,4 C 89 % 1017,2 hPa 0,0 l/m 1,2 km/h (1 Bft) S-SW 213 0 min 28 W/m 0,8 C 2,4 C 6,4 km/h (2 Bft)
28.02.2020 07:50 2,4 C 89 % 1017,1 hPa 0,0 l/m 0,8 km/h (0 Bft) S-SO 168 0 min 19 W/m 0,8 C 2,4 C 8,0 km/h (2 Bft)
28.02.2020 07:45 2,4 C 89 % 1017,1 hPa 0,0 l/m 3,8 km/h (1 Bft) SW 229 0 min 16 W/m 0,8 C 2,4 C 12,9 km/h (3 Bft)
28.02.2020 07:40 2,4 C 89 % 1017,2 hPa 0,0 l/m 2,4 km/h (1 Bft) S-SW 201 0 min 19 W/m 0,8 C 2,4 C 11,3 km/h (2 Bft)
28.02.2020 07:35 2,3 C 88 % 1017,1 hPa 0,0 l/m 3,4 km/h (1 Bft) SW 223 0 min 18 W/m 0,5 C 2,3 C 8,0 km/h (2 Bft)
28.02.2020 07:30 2,4 C 88 % 1017,0 hPa 0,0 l/m 3,1 km/h (1 Bft) S-SW 210 0 min 16 W/m 0,6 C 2,4 C 8,0 km/h (2 Bft)
28.02.2020 07:25 2,4 C 88 % 1016,9 hPa 0,0 l/m 0,4 km/h (0 Bft) S-SW 200 0 min 9 W/m 0,6 C 2,4 C 3,2 km/h (1 Bft)
28.02.2020 07:20 2,4 C 88 % 1016,8 hPa 0,0 l/m 1,7 km/h (1 Bft) S-SW 200 0 min 5 W/m 0,6 C 2,4 C 6,4 km/h (2 Bft)
28.02.2020 07:15 2,4 C 89 % 1016,8 hPa 0,0 l/m 1,9 km/h (1 Bft) S-SW 199 0 min 0 W/m 0,8 C 2,4 C 4,8 km/h (1 Bft)
28.02.2020 07:10 2,3 C 89 % 1016,9 hPa 0,0 l/m 2,3 km/h (1 Bft) S-SW 200 0 min 0 W/m 0,7 C 2,3 C 8,0 km/h (2 Bft)
28.02.2020 07:05 2,3 C 89 % 1016,9 hPa 0,0 l/m 3,4 km/h (1 Bft) S-SW 196 0 min 0 W/m 0,7 C 2,3 C 8,0 km/h (2 Bft)
28.02.2020 07:00 2,3 C 89 % 1016,8 hPa 0,0 l/m 2,4 km/h (1 Bft) S-SW 198 0 min 0 W/m 0,7 C 2,3 C 8,0 km/h (2 Bft)
28.02.2020 06:55 2,3 C 89 % 1016,8 hPa 0,0 l/m 1,3 km/h (1 Bft) S-SW 198 0 min 0 W/m 0,7 C 2,3 C 6,4 km/h (2 Bft)
28.02.2020 06:50 2,2 C 89 % 1016,8 hPa 0,0 l/m 1,3 km/h (1 Bft) NW 309 0 min 0 W/m 0,6 C 2,2 C 9,7 km/h (2 Bft)
28.02.2020 06:45 2,2 C 89 % 1016,7 hPa 0,0 l/m 0,5 km/h (0 Bft) W-SW 258 0 min 0 W/m 0,6 C 2,2 C 4,8 km/h (1 Bft)
28.02.2020 06:40 2,2 C 89 % 1016,6 hPa 0,0 l/m 1,3 km/h (1 Bft) S 182 0 min 0 W/m 0,6 C 2,2 C 6,4 km/h (2 Bft)
28.02.2020 06:35 2,1 C 89 % 1016,6 hPa 0,0 l/m 1,6 km/h (1 Bft) S-SW 202 0 min 0 W/m 0,5 C 2,1 C 6,4 km/h (2 Bft)
28.02.2020 06:30 2,1 C 89 % 1016,4 hPa 0,0 l/m 2,5 km/h (1 Bft) S-SW 211 0 min 0 W/m 0,5 C 2,1 C 6,4 km/h (2 Bft)
28.02.2020 06:25 2,2 C 89 % 1016,3 hPa 0,0 l/m 3,8 km/h (1 Bft) S-SW 211 0 min 0 W/m 0,6 C 2,2 C 9,7 km/h (2 Bft)
28.02.2020 06:20 2,2 C 89 % 1016,2 hPa 0,0 l/m 2,6 km/h (1 Bft) W 263 0 min 0 W/m 0,6 C 2,2 C 6,4 km/h (2 Bft)
28.02.2020 06:15 2,2 C 89 % 1016,2 hPa 0,0 l/m 0,2 km/h (0 Bft) W 264 0 min 0 W/m 0,6 C 2,2 C 4,8 km/h (1 Bft)
28.02.2020 06:10 2,3 C 89 % 1016,0 hPa 0,0 l/m 1,2 km/h (1 Bft) W 264 0 min 0 W/m 0,7 C 2,3 C 6,4 km/h (2 Bft)
28.02.2020 06:05 2,2 C 89 % 1015,9 hPa 0,0 l/m 2,4 km/h (1 Bft) W-SW 244 0 min 0 W/m 0,6 C 2,2 C 11,3 km/h (2 Bft)
28.02.2020 05:55 2,2 C 89 % 1015,8 hPa 0,0 l/m 0,0 km/h (0 Bft) N 0 0 min 0 W/m 0,6 C 2,2 C 0,0 km/h (0 Bft)
28.02.2020 05:50 2,2 C 89 % 1015,7 hPa 0,0 l/m 0,0 km/h (0 Bft) W 270 0 min 0 W/m 0,6 C 2,2 C 1,6 km/h (1 Bft)
28.02.2020 05:45 2,2 C 89 % 1015,5 hPa 0,0 l/m 3,2 km/h (1 Bft) W 270 0 min 0 W/m 0,6 C 2,2 C 6,4 km/h (2 Bft)
28.02.2020 05:40 2,1 C 89 % 1015,4 hPa 0,0 l/m 3,2 km/h (1 Bft) W 270 0 min 0 W/m 0,5 C 2,1 C 11,3 km/h (2 Bft)
28.02.2020 05:35 2,1 C 89 % 1015,1 hPa 0,0 l/m 3,2 km/h (1 Bft) W 270 0 min 0 W/m 0,5 C 2,1 C 11,3 km/h (2 Bft)
28.02.2020 05:30 2,1 C 89 % 1014,9 hPa 0,0 l/m 1,6 km/h (1 Bft) W 270 0 min 0 W/m 0,5 C 2,1 C 6,4 km/h (2 Bft)
28.02.2020 05:25 2,1 C 89 % 1014,9 hPa 0,0 l/m 0,0 km/h (0 Bft) W 270 0 min 0 W/m 0,5 C 2,1 C 3,2 km/h (1 Bft)
28.02.2020 05:20 2,1 C 89 % 1014,9 hPa 0,0 l/m 0,0 km/h (0 Bft) W 270 0 min 0 W/m 0,5 C 2,1 C 3,2 km/h (1 Bft)
28.02.2020 05:15 2,1 C 89 % 1014,8 hPa 0,0 l/m 1,6 km/h (1 Bft) W 270 0 min 0 W/m 0,5 C 2,1 C 6,4 km/h (2 Bft)
28.02.2020 05:10 2,1 C 89 % 1014,8 hPa 0,0 l/m 1,6 km/h (1 Bft) W 270 0 min 0 W/m 0,5 C 2,1 C 6,4 km/h (2 Bft)
28.02.2020 05:05 2,1 C 89 % 1014,7 hPa 0,0 l/m 1,6 km/h (1 Bft) W 270 0 min 0 W/m 0,5 C 2,1 C 9,7 km/h (2 Bft)
28.02.2020 05:00 2,1 C 89 % 1014,6 hPa 0,0 l/m 3,2 km/h (1 Bft) W-SW 247 0 min 0 W/m 0,5 C 2,1 C 9,7 km/h (2 Bft)
28.02.2020 04:55 2,1 C 88 % 1014,5 hPa 0,0 l/m 1,6 km/h (1 Bft) W-NW 292 0 min 0 W/m 0,3 C 2,1 C 11,3 km/h (2 Bft)
28.02.2020 04:50 2,1 C 88 % 1014,4 hPa 0,0 l/m 1,6 km/h (1 Bft) W-NW 292 0 min 0 W/m 0,3 C 2,1 C 8,0 km/h (2 Bft)
28.02.2020 04:45 2,2 C 88 % 1014,3 hPa 0,0 l/m 3,2 km/h (1 Bft) W 270 0 min 0 W/m 0,4 C 2,2 C 9,7 km/h (2 Bft)
28.02.2020 04:40 2,2 C 87 % 1014,2 hPa 0,0 l/m 1,6 km/h (1 Bft) W 270 0 min 0 W/m 0,3 C 2,2 C 6,4 km/h (2 Bft)
28.02.2020 04:35 2,2 C 87 % 1014,1 hPa 0,0 l/m 4,8 km/h (1 Bft) W-NW 292 0 min 0 W/m 0,3 C 2,2 C 14,5 km/h (3 Bft)
28.02.2020 04:30 2,3 C 87 % 1014,1 hPa 0,0 l/m 3,2 km/h (1 Bft) W 270 0 min 0 W/m 0,4 C 2,3 C 9,7 km/h (2 Bft)
28.02.2020 04:25 2,3 C 87 % 1013,9 hPa 0,0 l/m 1,6 km/h (1 Bft) W 270 0 min 0 W/m 0,4 C 2,3 C 11,3 km/h (2 Bft)
28.02.2020 04:20 2,3 C 87 % 1013,9 hPa 0,0 l/m 3,2 km/h (1 Bft) W-NW 292 0 min 0 W/m 0,4 C 2,3 C 11,3 km/h (2 Bft)
28.02.2020 04:15 2,2 C 88 % 1013,7 hPa 0,2 l/m 4,8 km/h (1 Bft) W-NW 292 0 min 0 W/m 0,4 C 2,2 C 14,5 km/h (3 Bft)
28.02.2020 04:10 2,2 C 89 % 1013,6 hPa 0,0 l/m 3,2 km/h (1 Bft) W-NW 292 0 min 0 W/m 0,6 C 2,2 C 8,0 km/h (2 Bft)
28.02.2020 04:05 2,1 C 89 % 1013,5 hPa 0,0 l/m 3,2 km/h (1 Bft) W-NW 292 0 min 0 W/m 0,5 C 2,1 C 16,1 km/h (3 Bft)
28.02.2020 04:00 2,1 C 89 % 1013,4 hPa 0,0 l/m 3,2 km/h (1 Bft) W-NW 292 0 min 0 W/m 0,5 C 2,1 C 12,9 km/h (3 Bft)
28.02.2020 03:55 2,1 C 90 % 1013,2 hPa 0,0 l/m 1,6 km/h (1 Bft) W-NW 292 0 min 0 W/m 0,6 C 2,1 C 6,4 km/h (2 Bft)
28.02.2020 03:50 2,1 C 90 % 1013,1 hPa 0,0 l/m 1,6 km/h (1 Bft) W-NW 292 0 min 0 W/m 0,6 C 2,1 C 8,0 km/h (2 Bft)
28.02.2020 03:45 2,1 C 90 % 1013,0 hPa 0,0 l/m 3,2 km/h (1 Bft) W-NW 292 0 min 0 W/m 0,6 C 2,1 C 9,7 km/h (2 Bft)
28.02.2020 03:40 2,2 C 90 % 1012,8 hPa 0,0 l/m 3,2 km/h (1 Bft) W-NW 292 0 min 0 W/m 0,7 C 2,2 C 9,7 km/h (2 Bft)
28.02.2020 03:35 2,3 C 89 % 1012,9 hPa 0,0 l/m 3,2 km/h (1 Bft) W-NW 292 0 min 0 W/m 0,7 C 2,3 C 11,3 km/h (2 Bft)
28.02.2020 03:30 2,4 C 89 % 1012,8 hPa 0,0 l/m 1,6 km/h (1 Bft) W-NW 292 0 min 0 W/m 0,8 C 2,4 C 8,0 km/h (2 Bft)
28.02.2020 03:25 2,4 C 89 % 1012,8 hPa 0,0 l/m 3,2 km/h (1 Bft) W-NW 292 0 min 0 W/m 0,8 C 2,4 C 11,3 km/h (2 Bft)
28.02.2020 03:20 2,4 C 89 % 1012,7 hPa 0,0 l/m 3,2 km/h (1 Bft) W-NW 292 0 min 0 W/m 0,8 C 2,4 C 14,5 km/h (3 Bft)
28.02.2020 03:15 2,4 C 89 % 1012,6 hPa 0,0 l/m 3,2 km/h (1 Bft) W-NW 292 0 min 0 W/m 0,8 C 2,4 C 12,9 km/h (3 Bft)
28.02.2020 03:10 2,4 C 89 % 1012,5 hPa 0,0 l/m 1,6 km/h (1 Bft) W-NW 292 0 min 0 W/m 0,8 C 2,4 C 6,4 km/h (2 Bft)
28.02.2020 03:05 2,4 C 89 % 1012,3 hPa 0,0 l/m 3,2 km/h (1 Bft) W-NW 292 0 min 0 W/m 0,8 C 2,4 C 12,9 km/h (3 Bft)
28.02.2020 03:00 2,5 C 89 % 1012,2 hPa 0,0 l/m 3,2 km/h (1 Bft) W 270 0 min 0 W/m 0,9 C 2,5 C 19,3 km/h (3 Bft)
28.02.2020 02:55 2,5 C 89 % 1012,1 hPa 0,0 l/m 4,8 km/h (1 Bft) W-NW 292 0 min 0 W/m 0,9 C 2,5 C 17,7 km/h (3 Bft)
28.02.2020 02:50 2,6 C 89 % 1011,9 hPa 0,0 l/m 3,2 km/h (1 Bft) W-NW 292 0 min 0 W/m 1,0 C 2,6 C 8,0 km/h (2 Bft)
28.02.2020 02:45 2,6 C 89 % 1011,8 hPa 0,0 l/m 6,4 km/h (2 Bft) W-NW 292 0 min 0 W/m 1,0 C 2,6 C 17,7 km/h (3 Bft)
28.02.2020 02:40 2,6 C 89 % 1011,8 hPa 0,2 l/m 4,8 km/h (1 Bft) W-NW 292 0 min 0 W/m 1,0 C 2,6 C 16,1 km/h (3 Bft)
28.02.2020 02:35 2,5 C 89 % 1011,6 hPa 0,0 l/m 3,2 km/h (1 Bft) W-NW 292 0 min 0 W/m 0,9 C 2,5 C 12,9 km/h (3 Bft)
28.02.2020 02:30 2,5 C 89 % 1011,6 hPa 0,0 l/m 3,2 km/h (1 Bft) W 270 0 min 0 W/m 0,9 C 2,5 C 9,7 km/h (2 Bft)
28.02.2020 02:25 2,5 C 90 % 1011,5 hPa 0,0 l/m 1,6 km/h (1 Bft) W-NW 292 0 min 0 W/m 1,0 C 2,5 C 6,4 km/h (2 Bft)
28.02.2020 02:20 2,5 C 89 % 1011,4 hPa 0,0 l/m 0,0 km/h (0 Bft) W-NW 292 0 min 0 W/m 0,9 C 2,5 C 6,4 km/h (2 Bft)
28.02.2020 02:15 2,5 C 90 % 1011,3 hPa 0,0 l/m 1,6 km/h (1 Bft) W-NW 292 0 min 0 W/m 1,0 C 2,5 C 8,0 km/h (2 Bft)
28.02.2020 02:10 2,5 C 90 % 1011,2 hPa 0,0 l/m 3,2 km/h (1 Bft) W-NW 292 0 min 0 W/m 1,0 C 2,5 C 11,3 km/h (2 Bft)
28.02.2020 02:05 2,5 C 90 % 1011,0 hPa 0,0 l/m 3,2 km/h (1 Bft) W-NW 292 0 min 0 W/m 1,0 C 2,5 C 12,9 km/h (3 Bft)
28.02.2020 02:00 2,6 C 90 % 1010,9 hPa 0,0 l/m 3,2 km/h (1 Bft) W-NW 292 0 min 0 W/m 1,1 C 2,6 C 12,9 km/h (3 Bft)
28.02.2020 01:55 2,5 C 89 % 1010,8 hPa 0,2 l/m 4,8 km/h (1 Bft) W-NW 292 0 min 0 W/m 0,9 C 2,5 C 17,7 km/h (3 Bft)
28.02.2020 01:50 2,5 C 89 % 1010,6 hPa 0,0 l/m 3,2 km/h (1 Bft) W-NW 292 0 min 0 W/m 0,9 C 2,5 C 11,3 km/h (2 Bft)
28.02.2020 01:45 2,4 C 89 % 1010,4 hPa 0,0 l/m 3,2 km/h (1 Bft) W 270 0 min 0 W/m 0,8 C 2,4 C 17,7 km/h (3 Bft)
28.02.2020 01:40 2,4 C 89 % 1010,2 hPa 0,0 l/m 4,8 km/h (1 Bft) W 270 0 min 0 W/m 0,8 C 2,4 C 19,3 km/h (3 Bft)
28.02.2020 01:35 2,4 C 89 % 1010,0 hPa 0,0 l/m 4,8 km/h (1 Bft) NW 315 0 min 0 W/m 0,8 C 2,4 C 14,5 km/h (3 Bft)
28.02.2020 01:30 2,4 C 89 % 1009,9 hPa 0,2 l/m 3,2 km/h (1 Bft) W-NW 292 0 min 0 W/m 0,8 C 2,4 C 17,7 km/h (3 Bft)
28.02.2020 01:25 2,4 C 89 % 1009,7 hPa 0,0 l/m 4,8 km/h (1 Bft) W-NW 292 0 min 0 W/m 0,8 C 2,4 C 17,7 km/h (3 Bft)
28.02.2020 01:20 2,4 C 90 % 1009,7 hPa 0,0 l/m 3,2 km/h (1 Bft) W-NW 292 0 min 0 W/m 0,9 C 2,4 C 12,9 km/h (3 Bft)
28.02.2020 01:15 2,4 C 90 % 1009,6 hPa 0,0 l/m 3,2 km/h (1 Bft) W 270 0 min 0 W/m 0,9 C 2,4 C 14,5 km/h (3 Bft)
28.02.2020 01:10 2,3 C 90 % 1009,3 hPa 0,0 l/m 3,2 km/h (1 Bft) W 270 0 min 0 W/m 0,8 C 2,3 C 12,9 km/h (3 Bft)
28.02.2020 01:05 2,3 C 90 % 1009,2 hPa 0,0 l/m 1,6 km/h (1 Bft) W 270 0 min 0 W/m 0,8 C 2,3 C 16,1 km/h (3 Bft)
28.02.2020 01:00 2,3 C 90 % 1009,0 hPa 0,2 l/m 3,2 km/h (1 Bft) W 270 0 min 0 W/m 0,8 C 2,3 C 16,1 km/h (3 Bft)
28.02.2020 00:55 2,3 C 91 % 1008,8 hPa 0,0 l/m 3,2 km/h (1 Bft) W-NW 292 0 min 0 W/m 1,0 C 2,3 C 14,5 km/h (3 Bft)
28.02.2020 00:50 2,2 C 91 % 1008,5 hPa 0,0 l/m 3,2 km/h (1 Bft) W-NW 292 0 min 0 W/m 0,9 C 2,2 C 11,3 km/h (2 Bft)
28.02.2020 00:45 2,2 C 91 % 1008,3 hPa 0,0 l/m 4,8 km/h (1 Bft) W 270 0 min 0 W/m 0,9 C 2,2 C 14,5 km/h (3 Bft)
28.02.2020 00:40 2,2 C 91 % 1008,2 hPa 0,0 l/m 3,2 km/h (1 Bft) W-NW 292 0 min 0 W/m 0,9 C 2,2 C 6,4 km/h (2 Bft)
28.02.2020 00:35 2,2 C 91 % 1008,0 hPa 0,2 l/m 3,2 km/h (1 Bft) W-NW 292 0 min 0 W/m 0,9 C 2,2 C 9,7 km/h (2 Bft)
28.02.2020 00:30 2,1 C 92 % 1007,9 hPa 0,0 l/m 3,2 km/h (1 Bft) W-NW 292 0 min 0 W/m 0,9 C 2,1 C 12,9 km/h (3 Bft)
28.02.2020 00:25 2,1 C 92 % 1007,8 hPa 0,0 l/m 3,2 km/h (1 Bft) W-NW 292 0 min 0 W/m 0,9 C 2,1 C 11,3 km/h (2 Bft)
28.02.2020 00:20 2,1 C 92 % 1007,6 hPa 0,0 l/m 3,2 km/h (1 Bft) W-NW 292 0 min 0 W/m 0,9 C 2,1 C 9,7 km/h (2 Bft)
28.02.2020 00:15 2,1 C 92 % 1007,4 hPa 0,0 l/m 3,2 km/h (1 Bft) W-NW 292 0 min 0 W/m 0,9 C 2,1 C 11,3 km/h (2 Bft)
28.02.2020 00:10 2,2 C 93 % 1007,3 hPa 0,0 l/m 3,2 km/h (1 Bft) W-NW 292 0 min 0 W/m 1,2 C 2,2 C 14,5 km/h (3 Bft)
28.02.2020 00:05 2,2 C 93 % 1007,1 hPa 0,0 l/m 4,8 km/h (1 Bft) W-NW 292 0 min 0 W/m 1,2 C 2,2 C 12,9 km/h (3 Bft)
28.02.2020 00:00 2,2 C 94 % 1006,9 hPa 0,2 l/m 3,2 km/h (1 Bft) W-NW 292 0 min 0 W/m 1,3 C 2,2 C 11,3 km/h (2 Bft)
27.02.2020 23:55 2,1 C 94 % 1006,8 hPa 0,0 l/m 4,8 km/h (1 Bft) W 270 0 min 0 W/m 1,2 C 2,1 C 14,5 km/h (3 Bft)
27.02.2020 23:50 2,1 C 94 % 1006,8 hPa 0,0 l/m 3,2 km/h (1 Bft) W 270 0 min 0 W/m 1,2 C 2,1 C 11,3 km/h (2 Bft)
27.02.2020 23:45 2,0 C 94 % 1006,7 hPa 0,2 l/m 0,0 km/h (0 Bft) N 0 0 min 0 W/m 1,1 C 2,0 C 0,0 km/h (0 Bft)
27.02.2020 23:40 2,0 C 94 % 1006,5 hPa 0,0 l/m 0,0 km/h (0 Bft) N 0 0 min 0 W/m 1,1 C 2,0 C 0,0 km/h (0 Bft)
27.02.2020 23:35 2,1 C 94 % 1006,3 hPa 0,0 l/m 0,0 km/h (0 Bft) N 0 0 min 0 W/m 1,2 C 2,1 C 0,0 km/h (0 Bft)
27.02.2020 23:30 2,1 C 94 % 1006,1 hPa 0,0 l/m 0,0 km/h (0 Bft) W-NW 292 0 min 0 W/m 1,2 C 2,1 C 1,6 km/h (1 Bft)
27.02.2020 23:25 2,1 C 94 % 1006,0 hPa 0,0 l/m 0,0 km/h (0 Bft) N 0 0 min 0 W/m 1,2 C 2,1 C 0,0 km/h (0 Bft)
27.02.2020 23:20 2,1 C 94 % 1005,8 hPa 0,0 l/m 0,0 km/h (0 Bft) N 0 0 min 0 W/m 1,2 C 2,1 C 0,0 km/h (0 Bft)
27.02.2020 23:15 2,1 C 94 % 1005,7 hPa 0,0 l/m 0,0 km/h (0 Bft) W-NW 292 0 min 0 W/m 1,2 C 2,1 C 3,2 km/h (1 Bft)
27.02.2020 23:10 2,1 C 94 % 1005,6 hPa 0,2 l/m 0,0 km/h (0 Bft) W-NW 292 0 min 0 W/m 1,2 C 2,1 C 6,4 km/h (2 Bft)
27.02.2020 23:05 2,1 C 94 % 1005,5 hPa 0,0 l/m 0,0 km/h (0 Bft) W-NW 292 0 min 0 W/m 1,2 C 2,1 C 4,8 km/h (1 Bft)
27.02.2020 23:00 2,0 C 94 % 1005,4 hPa 0,2 l/m 0,6 km/h (0 Bft) W-NW 296 0 min 0 W/m 1,1 C 2,0 C 4,8 km/h (1 Bft)
27.02.2020 22:55 2,0 C 95 % 1005,2 hPa 0,0 l/m 1,0 km/h (0 Bft) W-NW 292 0 min 0 W/m 1,3 C 2,0 C 6,4 km/h (2 Bft)
27.02.2020 22:50 1,9 C 95 % 1004,9 hPa 0,0 l/m 1,2 km/h (1 Bft) W-NW 292 0 min 0 W/m 1,2 C 1,9 C 6,4 km/h (2 Bft)
27.02.2020 22:45 1,9 C 95 % 1004,8 hPa 0,0 l/m 2,1 km/h (1 Bft) W-NW 295 0 min 0 W/m 1,2 C 1,9 C 6,4 km/h (2 Bft)
27.02.2020 22:40 1,8 C 95 % 1004,6 hPa 0,0 l/m 0,8 km/h (0 Bft) NW 308 0 min 0 W/m 1,1 C 1,8 C 4,8 km/h (1 Bft)
27.02.2020 22:35 1,7 C 94 % 1004,5 hPa 0,0 l/m 1,0 km/h (0 Bft) NW 311 0 min 0 W/m 0,8 C 1,7 C 6,4 km/h (2 Bft)
27.02.2020 22:30 1,7 C 95 % 1004,4 hPa 0,2 l/m 0,2 km/h (0 Bft) N-NW 343 0 min 0 W/m 1,0 C 1,7 C 4,8 km/h (1 Bft)
27.02.2020 22:25 1,7 C 95 % 1004,2 hPa 0,0 l/m 1,1 km/h (1 Bft) N-NW 346 0 min 0 W/m 1,0 C 1,7 C 8,0 km/h (2 Bft)
27.02.2020 22:20 1,6 C 95 % 1004,0 hPa 0,0 l/m 0,0 km/h (0 Bft) N-NW 333 0 min 0 W/m 0,9 C 1,6 C 0,0 km/h (0 Bft)
27.02.2020 22:15 1,6 C 95 % 1003,8 hPa 0,0 l/m 0,0 km/h (0 Bft) N-NW 333 0 min 0 W/m 0,9 C 1,6 C 0,0 km/h (0 Bft)
27.02.2020 22:10 1,7 C 94 % 1003,7 hPa 0,0 l/m 0,0 km/h (0 Bft) N-NW 333 0 min 0 W/m 0,8 C 1,7 C 0,0 km/h (0 Bft)
27.02.2020 22:05 1,7 C 95 % 1003,5 hPa 0,0 l/m 0,5 km/h (0 Bft) N-NW 333 0 min 0 W/m 1,0 C 1,7 C 4,8 km/h (1 Bft)
27.02.2020 22:00 1,7 C 95 % 1003,4 hPa 0,0 l/m 0,5 km/h (0 Bft) N-NW 334 0 min 0 W/m 1,0 C 1,7 C 4,8 km/h (1 Bft)
27.02.2020 21:55 1,7 C 95 % 1003,1 hPa 0,0 l/m 0,1 km/h (0 Bft) N-NW 336 0 min 0 W/m 1,0 C 1,7 C 3,2 km/h (1 Bft)
27.02.2020 21:50 1,7 C 95 % 1002,9 hPa 0,0 l/m 0,7 km/h (0 Bft) N-NW 336 0 min 0 W/m 1,0 C 1,7 C 4,8 km/h (1 Bft)
27.02.2020 21:45 1,7 C 95 % 1002,6 hPa 0,0 l/m 0,7 km/h (0 Bft) N-NW 336 0 min 0 W/m 1,0 C 1,7 C 4,8 km/h (1 Bft)
27.02.2020 21:40 1,7 C 95 % 1002,4 hPa 0,0 l/m 0,4 km/h (0 Bft) N-NW 340 0 min 0 W/m 1,0 C 1,7 C 4,8 km/h (1 Bft)
27.02.2020 21:35 1,7 C 95 % 1002,1 hPa 0,2 l/m 0,6 km/h (0 Bft) N-NW 341 0 min 0 W/m 1,0 C 1,7 C 4,8 km/h (1 Bft)
27.02.2020 21:30 1,7 C 95 % 1001,9 hPa 0,0 l/m 1,9 km/h (1 Bft) N-NW 344 0 min 0 W/m 1,0 C 1,7 C 6,4 km/h (2 Bft)
27.02.2020 21:25 1,7 C 95 % 1001,7 hPa 0,0 l/m 0,3 km/h (0 Bft) W-NW 292 0 min 0 W/m 1,0 C 1,7 C 4,8 km/h (1 Bft)
27.02.2020 21:20 1,7 C 95 % 1001,5 hPa 0,0 l/m 0,3 km/h (0 Bft) W-NW 292 0 min 0 W/m 1,0 C 1,7 C 4,8 km/h (1 Bft)
27.02.2020 21:15 1,7 C 95 % 1001,2 hPa 0,0 l/m 0,3 km/h (0 Bft) W-NW 290 0 min 0 W/m 1,0 C 1,7 C 6,4 km/h (2 Bft)
27.02.2020 21:10 1,7 C 95 % 1000,9 hPa 0,0 l/m 0,2 km/h (0 Bft) W-NW 284 0 min 0 W/m 1,0 C 1,7 C 3,2 km/h (1 Bft)
27.02.2020 21:05 1,7 C 95 % 1000,6 hPa 0,0 l/m 1,8 km/h (1 Bft) W-NW 284 0 min 0 W/m 1,0 C 1,7 C 6,4 km/h (2 Bft)
27.02.2020 21:00 1,7 C 95 % 1000,3 hPa 0,2 l/m 2,0 km/h (1 Bft) N-NW 337 0 min 0 W/m 1,0 C 1,7 C 12,9 km/h (3 Bft)
27.02.2020 20:55 1,7 C 95 % 1000,1 hPa 0,0 l/m 1,2 km/h (1 Bft) N-NW 335 0 min 0 W/m 1,0 C 1,7 C 6,4 km/h (2 Bft)
27.02.2020 20:50 1,7 C 95 % 999,8 hPa 0,0 l/m 1,7 km/h (1 Bft) N-NW 336 0 min 0 W/m 1,0 C 1,7 C 6,4 km/h (2 Bft)
27.02.2020 20:45 1,7 C 95 % 999,6 hPa 0,0 l/m 1,2 km/h (1 Bft) N-NW 338 0 min 0 W/m 1,0 C 1,7 C 8,0 km/h (2 Bft)
27.02.2020 20:40 1,7 C 95 % 999,4 hPa 0,2 l/m 1,0 km/h (0 Bft) N-NW 331 0 min 0 W/m 1,0 C 1,7 C 6,4 km/h (2 Bft)
27.02.2020 20:35 1,7 C 95 % 999,3 hPa 0,0 l/m 2,9 km/h (1 Bft) N-NW 332 0 min 0 W/m 1,0 C 1,7 C 8,0 km/h (2 Bft)
27.02.2020 20:30 1,7 C 95 % 998,9 hPa 0,0 l/m 3,0 km/h (1 Bft) NW 325 0 min 0 W/m 1,0 C 1,7 C 12,9 km/h (3 Bft)
27.02.2020 20:25 1,6 C 95 % 998,7 hPa 0,2 l/m 1,7 km/h (1 Bft) N-NW 344 0 min 0 W/m 0,9 C 1,6 C 6,4 km/h (2 Bft)
27.02.2020 20:20 1,6 C 95 % 998,5 hPa 0,2 l/m 3,1 km/h (1 Bft) N-NW 345 0 min 0 W/m 0,9 C 1,6 C 12,9 km/h (3 Bft)
27.02.2020 20:15 1,6 C 95 % 998,2 hPa 0,0 l/m 4,5 km/h (1 Bft) N-NW 348 0 min 0 W/m 0,9 C 1,6 C 12,9 km/h (3 Bft)
27.02.2020 20:10 1,6 C 95 % 998,0 hPa 0,0 l/m 2,1 km/h (1 Bft) N-NW 340 0 min 0 W/m 0,9 C 1,6 C 12,9 km/h (3 Bft)
27.02.2020 20:05 1,6 C 95 % 997,7 hPa 0,2 l/m 4,0 km/h (1 Bft) N 350 0 min 0 W/m 0,9 C 1,6 C 16,1 km/h (3 Bft)
27.02.2020 20:00 1,6 C 95 % 997,4 hPa 0,0 l/m 3,6 km/h (1 Bft) N-NW 344 0 min 0 W/m 0,9 C 1,6 C 14,5 km/h (3 Bft)
_ Min-Zeit 20:00 16:50 20:00 - 22:10 - - - - 04:35 09:10 22:10
Minimum _ 1,6 C 69 % 997,4 hPa - 0,0 km/h (0 Bft) - - - - 0,3 C -0,8 C 0,0 km/h (0 Bft)
_ Max-Zeit 13:55 20:00 11:40 20:05 14:15 - - 10:15 12:00 11:10 16:40 14:15
Maximum _ 6,6 C 95 % 1019,5 hPa 0,2 l/m 13,1 km/h
S-SW (3 Bft)
- - 5 min 712 W/m 2,8 C 6,4 C 27,4 km/h
W-SW (5 Bft)
Durchschnitt _ 3,4 C 85 % 1012,3 hPa #4,2 l/m 4,4 km/h (1 Bft) S-SW - #5:35 h 181 W/m 1,1 C 2,9 C 12,1 km/h (2 Bft)